Flight Track Log - Related Links

Times and Time Zones

All times are in EDT time to prevent confusion due to time zone crossing. See the AAL832 flight status page for this flight to view local times or setup timezone preferences in your user account.

Time Position Orientation Groundspeed Altitude Reporting Facility
EDT Latitude Longitude Course Direction KTS MPH feet Rate Location/Type
Wed 05:52:14 PM 41.9333 -87.9000 180° South 174 200 2,400  Level Chicago TRACON
Wed 05:53:14 PM 41.8667 -87.8833 169° South 258 297 4,700 2,600 Climbing Chicago TRACON
Wed 05:54:00 PM 41.6584 -87.7179 166° South  Level Estimated
Wed 05:54:14 PM 41.7833 -87.8667 172° South 276 318 7,600  Level Chicago TRACON
Wed 05:55:00 PM 41.5506 -87.6555 166° South  Level Estimated
Wed 05:56:00 PM 41.4427 -87.5932 180° South  Level Estimated
Wed 05:56:14 PM 41.6336 -87.8100 164° South 304 350 13,900  Level Chicago Center
Wed 05:57:00 PM 41.3349 -87.5311 180° South  Level Estimated
Wed 05:57:16 PM 41.5389 -87.7750 165° South 346 398 16,000  Level Chicago Center
Wed 05:58:18 PM 41.4358 -87.7325 163° South 381 438 18,800 2,710 Climbing Chicago Center
Wed 05:59:20 PM 41.3283 -87.7264 178° South 387 445 21,600 2,371 Climbing Chicago Center
Wed 06:00:22 PM 41.2161 -87.7267 180° South 396 456 23,700 2,064 Climbing Chicago Center
Wed 06:01:25 PM 41.1008 -87.7128 175° South 411 473 25,900 2,016 Climbing Chicago Center
Wed 06:02:27 PM 40.9828 -87.6961 174° South 426 490 27,900 2,032 Climbing Chicago Center
Wed 06:03:29 PM 40.8425 -87.6192 157° South 471 542 30,100 1,839 Climbing Chicago Center
Wed 06:04:31 PM 40.7464 -87.4847 133° Southeast 501 577 31,700 1,839 Climbing Chicago Center
Wed 06:05:33 PM 40.6508 -87.3492 133° Southeast 508 585 33,900 1,935 Climbing Chicago Center
Wed 06:06:35 PM 40.5483 -87.2322 139° Southeast 498 573 35,700 1,500 Climbing Chicago Center
Wed 06:07:37 PM 40.4181 -87.1764 162° South 452 520 37,000 629 Climbing Chicago Center
Wed 06:08:39 PM 40.2981 -87.1481 170° South 440 506 37,000  Level Chicago Center
Wed 06:09:41 PM 40.1783 -87.1144 168° South 439 505 37,000  Level Chicago Center
Wed 06:10:24 PM 40.0772 -87.0889 169° South 437 503 37,000  Level Indianapolis Center
Wed 06:11:26 PM 39.9600 -87.0578 169° South 431 496 37,000  Level Indianapolis Center
Wed 06:12:28 PM 39.8433 -87.0269 169° South 428 493 37,000  Level Indianapolis Center
Wed 06:13:30 PM 39.7278 -86.9972 169° South 424 488 37,000  Level Indianapolis Center
Wed 06:14:32 PM 39.6122 -86.9683 169° South 423 487 37,000  Level Indianapolis Center
Wed 06:15:34 PM 39.4747 -86.9325 169° South 432 497 37,000  Level Indianapolis Center
Wed 06:16:36 PM 39.3556 -86.9036 169° South 434 499 37,000  Level Indianapolis Center
Wed 06:17:38 PM 39.2347 -86.8717 168° South 439 505 37,000  Level Indianapolis Center
Wed 06:18:40 PM 39.1097 -86.8161 161° South 466 536 37,000  Level Indianapolis Center
Wed 06:19:42 PM 38.9922 -86.7336 151° Southeast 476 548 37,000  Level Indianapolis Center
Wed 06:20:44 PM 38.8739 -86.6539 152° Southeast 477 549 37,000  Level Indianapolis Center
Wed 06:21:46 PM 38.7561 -86.5747 152° Southeast 473 544 37,000  Level Indianapolis Center
Wed 06:22:48 PM 38.6408 -86.4961 152° Southeast 466 536 37,000  Level Indianapolis Center
Wed 06:23:50 PM 38.5261 -86.4186 152° Southeast 461 531 37,000  Level Indianapolis Center
Wed 06:24:52 PM 38.4125 -86.3428 152° Southeast 458 527 37,000  Level Indianapolis Center
Wed 06:25:54 PM 38.2983 -86.2669 152° Southeast 457 526 37,000  Level Indianapolis Center
Wed 06:26:56 PM 38.1631 -86.1781 153° Southeast 452 520 37,000  Level Indianapolis Center
Wed 06:27:58 PM 38.0494 -86.1031 153° Southeast 454 522 37,000  Level Indianapolis Center
Wed 06:29:00 PM 37.9358 -86.0297 153° Southeast 454 522 37,000  Level Indianapolis Center
Wed 06:30:02 PM 37.8214 -85.9553 153° Southeast 459 528 37,000  Level Indianapolis Center
Wed 06:31:04 PM 37.7072 -85.8808 153° Southeast 458 527 37,000  Level Indianapolis Center
Wed 06:32:06 PM 37.5903 -85.8056 153° Southeast 467 537 37,000  Level Indianapolis Center
Wed 06:33:08 PM 37.4725 -85.7286 153° Southeast 472 543 37,000  Level Indianapolis Center
Wed 06:34:10 PM 37.3539 -85.6519 153° Southeast 476 548 37,000  Level Indianapolis Center
Wed 06:35:12 PM 37.2250 -85.5686 153° Southeast 478 550 37,000  Level Indianapolis Center
Wed 06:36:14 PM 37.1053 -85.4922 153° Southeast 478 550 37,000  Level Indianapolis Center
Wed 06:37:16 PM 36.9803 -85.4114 153° Southeast 475 547 37,000  Level Indianapolis Center
Wed 06:38:18 PM 36.8600 -85.3369 154° Southeast 480 552 37,000  Level Indianapolis Center
Wed 06:39:20 PM 36.7189 -85.2467 153° Southeast 474 545 37,000  Level Indianapolis Center
Wed 06:40:22 PM 36.6003 -85.1781 155° Southeast 470 541 37,000  Level Indianapolis Center
Wed 06:41:24 PM 36.4803 -85.1458 168° South 444 511 37,000  Level Indianapolis Center
Wed 06:42:26 PM 36.3606 -85.1161 169° South 439 505 37,000  Level Indianapolis Center
Wed 06:43:28 PM 36.2411 -85.0853 168° South 438 504 37,000  Level Indianapolis Center
Wed 06:44:31 PM 36.1236 -85.0544 168° South 435 501 37,000  Level Indianapolis Center
Wed 06:45:05 PM 36.0500 -85.0378 170° South 443 510 37,000  Level Atlanta Center
Wed 06:46:05 PM 35.9336 -85.0081 168° South 431 496 37,000  Level Atlanta Center
Wed 06:47:05 PM 35.8044 -84.9733 168° South 431 496 37,000  Level Atlanta Center
Wed 06:48:05 PM 35.6836 -84.9464 170° South 436 502 37,000  Level Atlanta Center
Wed 06:49:05 PM 35.5669 -84.9144 167° South 436 502 37,000  Level Atlanta Center
Wed 06:50:05 PM 35.4483 -84.8853 169° South 436 502 37,000  Level Atlanta Center
Wed 06:51:05 PM 35.3317 -84.8558 168° South 436 502 37,000  Level Atlanta Center
Wed 06:52:05 PM 35.2131 -84.8267 169° South 430 495 37,000  Level Atlanta Center
Wed 06:53:05 PM 35.0922 -84.7953 168° South 430 495 37,000  Level Atlanta Center
Wed 06:54:05 PM 34.9733 -84.7664 169° South 435 501 37,000  Level Atlanta Center
Wed 06:55:05 PM 34.8544 -84.7375 169° South 435 501 37,000  Level Atlanta Center
Wed 06:56:05 PM 34.7378 -84.7086 168° South 430 495 37,000  Level Atlanta Center
Wed 06:57:05 PM 34.6358 -84.6775 166° South 425 489 37,000  Level Atlanta Center
Wed 06:58:05 PM 34.5192 -84.6514 170° South 423 487 37,000  Level Atlanta Center
Wed 06:59:05 PM 34.4044 -84.6228 168° South 429 494 37,000  Level Atlanta Center
Wed 07:00:05 PM 34.2856 -84.5944 169° South 429 494 37,000  Level Atlanta Center
Wed 07:01:05 PM 34.1731 -84.5661 168° South 429 494 37,000  Level Atlanta Center
Wed 07:02:05 PM 34.0375 -84.5350 169° South 441 507 37,000  Level Atlanta Center
Wed 07:03:05 PM 33.9228 -84.5069 169° South 441 507 37,000  Level Atlanta Center
Wed 07:04:05 PM 33.8019 -84.4814 170° South 441 507 37,000  Level Atlanta Center
Wed 07:05:05 PM 33.6831 -84.4508 168° South 436 502 37,000  Level Atlanta Center
Wed 07:06:05 PM 33.5786 -84.4153 164° South 436 502 37,000  Level Atlanta Center
Wed 07:07:05 PM 33.4619 -84.3675 161° South 441 507 37,000  Level Atlanta Center
Wed 07:08:05 PM 33.3431 -84.3172 161° South 446 513 37,000  Level Atlanta Center
Wed 07:09:05 PM 33.2242 -84.2672 161° South 446 513 37,000  Level Atlanta Center
Wed 07:10:05 PM 33.1075 -84.2175 160° South 446 513 37,000  Level Atlanta Center
Wed 07:11:05 PM 32.9883 -84.1700 162° South 446 513 37,000  Level Atlanta Center
Wed 07:12:05 PM 32.8717 -84.1206 160° South 446 513 37,000  Level Atlanta Center
Wed 07:13:05 PM 32.7528 -84.0733 162° South 446 513 37,000  Level Atlanta Center
Wed 07:14:05 PM 32.6233 -84.0217 161° South 446 513 37,000  Level Atlanta Center
Wed 07:15:05 PM 32.5042 -83.9697 160° South 446 513 37,000  Level Atlanta Center
Wed 07:16:05 PM 32.3831 -83.9208 161° South 446 513 37,000  Level Atlanta Center
Wed 07:17:05 PM 32.2661 -83.8719 161° South 446 513 37,000  Level Atlanta Center
Wed 07:18:16 PM 32.1214 -83.8125 161° South 447 514 37,000  Level Jacksonville Center
Wed 07:19:15 PM 32.0028 -83.7647 161° South 452 520 37,000  Level Jacksonville Center
Wed 07:20:16 PM 31.8842 -83.7147 160° South 452 520 37,000  Level Jacksonville Center
Wed 07:21:16 PM 31.7611 -83.6622 160° South 457 526 37,000  Level Jacksonville Center
Wed 07:22:15 PM 31.6383 -83.6172 163° South 463 533 37,000  Level Jacksonville Center
Wed 07:23:16 PM 31.5217 -83.5847 167° South 476 548 37,000  Level Jacksonville Center
Wed 07:24:15 PM 31.3986 -83.5547 168° South 470 541 37,000  Level Jacksonville Center
Wed 07:25:16 PM 31.2733 -83.5222 167° South 465 535 37,000  Level Jacksonville Center
Wed 07:26:16 PM 31.1503 -83.4947 169° South 465 535 37,000  Level Jacksonville Center
Wed 07:27:15 PM 31.0253 -83.4647 168° South 465 535 37,000  Level Jacksonville Center
Wed 07:28:16 PM 30.9000 -83.4325 168° South 465 535 37,000  Level Jacksonville Center
Wed 07:29:15 PM 30.7686 -83.4028 169° South 456 525 37,000  Level Jacksonville Center
Wed 07:30:15 PM 30.6436 -83.3731 168° South 451 519 37,000  Level Jacksonville Center
Wed 07:31:15 PM 30.5206 -83.3411 167° South 451 519 37,000  Level Jacksonville Center
Wed 07:32:16 PM 30.3975 -83.3142 169° South 451 519 37,000  Level Jacksonville Center
Wed 07:33:16 PM 30.2742 -83.2847 168° South 451 519 37,000  Level Jacksonville Center
Wed 07:34:15 PM 30.1492 -83.2553 168° South 451 519 37,000  Level Jacksonville Center
Wed 07:35:15 PM 30.0281 -83.2261 168° South 451 519 37,000  Level Jacksonville Center
Wed 07:36:15 PM 29.8986 -83.1992 170° South 456 525 37,000  Level Jacksonville Center
Wed 07:37:15 PM 29.7778 -83.1678 167° South 456 525 37,000  Level Jacksonville Center
Wed 07:38:16 PM 29.6525 -83.1386 169° South 451 519 37,000  Level Jacksonville Center
Wed 07:39:15 PM 29.5294 -83.1097 168° South 450 518 37,000  Level Jacksonville Center
Wed 07:40:16 PM 29.4167 -83.0833 168° South 450 518 37,000  Level Jacksonville Center
Wed 07:41:16 PM 29.2936 -83.0522 168° South 450 518 37,000  Level Jacksonville Center
Wed 07:42:16 PM 29.1661 -83.0211 168° South 456 525 37,000  Level Jacksonville Center
Wed 07:43:16 PM 29.0411 -82.9947 170° South 461 531 37,000  Level Jacksonville Center
Wed 07:44:15 PM 28.9136 -82.9661 169° South 461 531 37,000  Level Jacksonville Center
Wed 07:45:15 PM 28.7886 -82.9353 168° South 466 536 37,000  Level Jacksonville Center
Wed 07:47:16 PM 28.5414 -82.8811 169° South 466 536 37,000  Level Miami Center
Wed 07:48:16 PM 28.4153 -82.8508 168° South 466 536 37,000  Level Miami Center
Wed 07:49:16 PM 28.2894 -82.8206 168° South 466 536 37,000  Level Miami Center
Wed 07:50:16 PM 28.1656 -82.7928 169° South 466 536 37,000  Level Miami Center
Wed 07:51:16 PM 28.0250 -82.7597 168° South 466 536 37,000  Level Miami Center
Wed 07:52:16 PM 27.9094 -82.7278 166° South 466 536 37,000  Level Miami Center
Wed 07:53:16 PM 27.7803 -82.6742 160° South 466 536 37,000  Level Miami Center
Wed 07:54:16 PM 27.6550 -82.6256 161° South 472 543 37,000  Level Miami Center
Wed 07:55:16 PM 27.5344 -82.5633 155° Southeast 482 555 37,000  Level Miami Center
Wed 07:56:16 PM 27.4264 -82.4997 152° Southeast 488 562 37,000  Level Miami Center
Wed 07:57:16 PM 27.2978 -82.4256 153° Southeast 482 555 37,000  Level Miami Center
Wed 07:58:16 PM 27.1750 -82.3589 154° Southeast 482 555 37,000 -50 Level Miami Center
Wed 07:59:16 PM 27.0564 -82.2928 154° Southeast 482 555 36,900 -700 Descending Miami Center
Wed 08:00:16 PM 26.9483 -82.2294 152° Southeast 482 555 35,600 -1,700 Descending Miami Center
Wed 08:01:16 PM 26.8153 -82.1536 153° Southeast 482 555 33,500 -2,100 Descending Miami Center
Wed 08:02:16 PM 26.6947 -82.0856 153° Southeast 482 555 31,400 -2,200 Descending Miami Center
Wed 08:04:16 PM 26.4511 -81.9447 153° Southeast 482 555 26,900 -1,967 Descending Miami Center
Wed 08:05:16 PM 26.3508 -81.8872 153° Southeast 477 549 25,500 -1,900 Descending Miami Center
Wed 08:06:16 PM 26.2364 -81.8222 153° Southeast 464 534 23,100 -2,200 Descending Miami Center
Wed 08:07:16 PM 26.1431 -81.7372 141° Southeast 457 526 21,100 -2,200 Descending Miami Center
Wed 08:08:16 PM 26.1033 -81.6131 110° East 414 476 18,700 -2,400 Descending Miami Center
Wed 08:09:16 PM 26.0653 -81.4983 110° East 408 470 16,300 -2,450 Descending Miami Center
Wed 08:10:16 PM 26.0292 -81.3858 110° East 390 449 13,800 -2,550 Descending Miami Center
Wed 08:11:16 PM 25.9947 -81.2783 110° East 376 433 11,200 -1,900 Descending Miami Center
Wed 08:12:16 PM 25.9603 -81.1800 111° Southeast 362 417 10,000 -805 Descending Miami Center
Wed 08:12:38 PM 25.9447 -81.1403 114° Southeast 302 348 10,100 130 Climbing Miami Center
Wed 08:13:02 PM 25.9331 -81.1053 110° East 293 337 10,100  Level Miami Center
Wed 08:14:03 PM 25.9044 -81.0142 109° East 301 346 10,100 -49 Level Miami Center
Wed 08:15:05 PM 25.8733 -80.9300 112° Southeast 300 345 10,000 -683 Descending Miami Center
Wed 08:16:06 PM 25.8381 -80.8456 115° Southeast 295 339 8,700 -1,219 Descending Miami Center
Wed 08:17:13 PM 25.8006 -80.7614 116° Southeast 246 283 7,400 -1,475 Descending Miami Center
Wed 08:18:08 PM 25.7750 -80.7028 116° Southeast 228 262 5,700 -1,366 Descending Miami Center
Wed 08:19:16 PM 25.7728 -80.6314 92° East 234 269 4,600 -797 Descending Miami Center
Wed 08:20:16 PM 25.7764 -80.5714 86° East 214 246 4,000 -495 Descending Miami Center
Wed 08:21:05 PM 25.7756 -80.5206 91° East 185 213 3,700 -550 Descending Miami Center
Wed 08:22:16 PM 25.7789 -80.4631 86° East 182 209 2,900 -885 Descending Miami Center
Wed 08:23:07 PM 25.7800 -80.4192 88° East 151 174 1,900 -903 Descending Miami Center
Wed 08:24:09 PM 25.7811 -80.3800 88° East 117 135 1,200 -634 Descending Miami Center
Wed 08:25:10 PM 25.7819 -80.3433 89° East 120 138 600 -590 Descending Miami Center

Login

Don't have an account? Register now (free) for customized features, flight alerts, and more!